Time;durP1;ratioP1;P1;durP2;ratioP2;P2;SDS_P1;SDS_P2;PMS_P1;PMS_P2;Temp;Humidity;BMP_temperature;BMP_pressure;BME280_temperature;BME280_humidity;BME280_pressure;Samples;Min_cycle;Max_cycle;Signal;HPM_P1;HPM_P2
2022/10/15 16:02:40;;;;;;;1999.90;999.90;;;16.90;99.90;;;;;;5159165;27;20213;-77
2022/10/15 16:05:07;;;;;;;1999.90;999.90;;;16.80;99.90;;;;;;5149072;27;20497;-78
2022/10/15 16:07:33;;;;;;;1999.90;999.90;;;16.80;99.90;;;;;;5133860;27;20027;-77
2022/10/15 16:09:59;;;;;;;1999.90;999.90;;;17.20;99.90;;;;;;5132917;27;20036;-79
2022/10/15 16:12:25;;;;;;;1999.90;999.90;;;16.70;99.90;;;;;;5131188;27;20031;-75
2022/10/15 16:14:50;;;;;;;1999.90;999.90;;;16.70;99.90;;;;;;5131104;27;20505;-75
2022/10/15 16:17:16;;;;;;;1999.90;999.90;;;16.80;99.90;;;;;;5131447;27;20035;-78
2022/10/15 16:19:42;;;;;;;1999.90;999.90;;;16.70;99.90;;;;;;5133157;27;20455;-77
2022/10/15 16:22:08;;;;;;;1999.90;999.90;;;16.70;99.90;;;;;;5132692;27;20040;-76
2022/10/15 16:24:34;;;;;;;1999.90;999.90;;;16.70;99.90;;;;;;5131277;27;20075;-78
2022/10/15 16:27:00;;;;;;;1999.90;999.90;;;16.50;99.90;;;;;;5132031;27;20126;-78
2022/10/15 16:29:26;;;;;;;1999.90;999.90;;;16.50;99.90;;;;;;5133510;27;20528;-77
2022/10/15 16:31:51;;;;;;;1999.90;999.90;;;16.50;99.90;;;;;;5135737;27;20062;-78
2022/10/15 16:34:17;;;;;;;1999.90;999.90;;;16.30;99.90;;;;;;5133491;27;20473;-77
2022/10/15 16:36:43;;;;;;;1999.90;999.90;;;16.40;99.90;;;;;;5134108;27;20039;-77
2022/10/15 16:39:09;;;;;;;1999.90;999.90;;;16.20;99.90;;;;;;5131847;27;20074;-76
2022/10/15 16:41:34;;;;;;;1999.90;999.90;;;16.10;99.90;;;;;;5131928;27;20042;-77
2022/10/15 16:44:00;;;;;;;1999.90;999.90;;;16.00;99.90;;;;;;5132079;27;20376;-76
2022/10/15 16:46:26;;;;;;;1999.90;999.90;;;15.80;99.90;;;;;;5133341;27;20081;-77
2022/10/15 16:48:53;;;;;;;1999.90;999.90;;;15.70;99.90;;;;;;5133735;27;20440;-77
2022/10/15 16:51:20;;;;;;;1999.90;999.90;;;15.50;99.90;;;;;;5133761;27;20028;-79
2022/10/15 16:53:46;;;;;;;1999.90;999.90;;;15.50;99.90;;;;;;5133558;27;20036;-77
2022/10/15 16:56:22;;;;;;;1999.90;999.90;;;15.60;99.90;;;;;;5133258;27;20469;-78
2022/10/15 16:58:48;;;;;;;1999.90;999.90;;;15.60;99.90;;;;;;5132752;27;20473;-74
2022/10/15 17:01:19;;;;;;;1999.90;999.90;;;15.70;99.90;;;;;;5130054;27;20036;-76
2022/10/15 17:03:45;;;;;;;1999.90;999.90;;;15.70;99.90;;;;;;5130280;27;20052;-77
2022/10/15 17:06:14;;;;;;;1999.90;999.90;;;15.70;99.90;;;;;;5130405;27;20059;-76
2022/10/15 17:08:57;;;;;;;1999.90;999.90;;;15.70;99.90;;;;;;5127971;27;20035;-77
2022/10/15 17:11:28;;;;;;;1999.90;999.90;;;15.70;99.90;;;;;;5131378;27;20050;-77
2022/10/15 17:13:57;;;;;;;1999.90;999.90;;;15.70;99.90;;;;;;5116498;27;20036;-78
2022/10/15 17:16:30;;;;;;;1999.90;999.90;;;15.70;99.90;;;;;;5117597;27;20157;-76
2022/10/15 17:18:56;;;;;;;1999.90;999.90;;;15.80;99.90;;;;;;5120983;28;20089;-78
2022/10/15 17:21:24;;;;;;;1999.90;999.90;;;15.80;99.90;;;;;;5117532;28;20593;-78
2022/10/15 17:23:52;;;;;;;1999.90;999.90;;;15.70;99.90;;;;;;5117498;28;20032;-78
2022/10/15 17:26:20;;;;;;;1999.90;999.90;;;15.80;99.90;;;;;;5117281;28;20047;-78
2022/10/15 17:28:47;;;;;;;1999.90;999.90;;;15.90;99.90;;;;;;5117352;28;20516;-78
2022/10/15 17:31:15;;;;;;;1999.90;999.90;;;15.90;99.90;;;;;;5117486;28;20461;-77
2022/10/15 17:33:42;;;;;;;1999.90;999.90;;;15.90;99.90;;;;;;5117127;27;20427;-77
2022/10/15 17:36:16;;;;;;;1999.90;999.90;;;16.00;99.90;;;;;;5116883;28;20560;-77
2022/10/15 17:38:43;;;;;;;1999.90;999.90;;;16.10;99.90;;;;;;5118521;28;20036;-77
2022/10/15 17:41:14;;;;;;;1999.90;999.90;;;16.10;99.90;;;;;;5118289;28;20074;-78
2022/10/15 17:43:40;;;;;;;1999.90;999.90;;;16.20;99.90;;;;;;5097816;28;20028;-76
2022/10/15 17:46:11;;;;;;;1999.90;999.90;;;16.30;99.90;;;;;;5097462;28;20040;-81
2022/10/15 17:48:38;;;;;;;1999.90;999.90;;;16.30;99.90;;;;;;5098011;28;20024;-76
2022/10/15 17:51:05;;;;;;;1999.90;999.90;;;16.30;99.90;;;;;;5097627;28;20032;-77
2022/10/15 17:53:31;;;;;;;1999.90;999.90;;;16.40;99.90;;;;;;5095368;28;20029;-77
2022/10/15 17:55:56;;;;;;;1999.90;999.90;;;16.40;99.90;;;;;;5095490;28;20539;-76
2022/10/15 17:58:23;;;;;;;1999.90;999.90;;;16.50;99.90;;;;;;5095724;28;20604;-77
2022/10/15 18:00:55;;;;;;;1999.90;999.90;;;16.50;99.90;;;;;;5096457;28;20052;-77
2022/10/15 18:03:22;;;;;;;1999.90;999.90;;;16.20;99.90;;;;;;5096252;28;20043;-74
2022/10/15 18:05:48;;;;;;;1999.90;999.90;;;16.20;99.90;;;;;;5102085;28;20110;-80
2022/10/15 18:08:14;;;;;;;1999.90;999.90;;;16.20;99.90;;;;;;5118340;28;20123;-77
2022/10/15 18:10:40;;;;;;;1999.90;999.90;;;16.20;99.90;;;;;;5118068;28;20028;-77
2022/10/15 18:13:06;;;;;;;1999.90;999.90;;;16.20;99.90;;;;;;5103774;28;20032;-78
2022/10/15 18:15:31;;;;;;;1999.90;999.90;;;16.20;99.90;;;;;;5117884;27;20035;-77
2022/10/15 18:17:57;;;;;;;1999.90;999.90;;;16.40;99.90;;;;;;5117018;28;20024;-77
2022/10/15 18:20:23;;;;;;;1999.90;999.90;;;16.40;99.90;;;;;;5115968;28;20122;-77
2022/10/15 18:22:50;;;;;;;1999.90;999.90;;;16.20;99.90;;;;;;5115457;28;20028;-76
2022/10/15 18:25:15;;;;;;;1999.90;999.90;;;16.10;99.90;;;;;;5116461;27;20033;-76
2022/10/15 18:27:41;;;;;;;1999.90;999.90;;;16.00;99.90;;;;;;5117328;28;20040;-75
2022/10/15 18:30:07;;;;;;;1999.90;999.90;;;15.80;99.90;;;;;;5119101;27;20032;-74
2022/10/15 18:32:33;;;;;;;1999.90;999.90;;;15.80;99.90;;;;;;5121677;27;20032;-76
2022/10/15 18:34:59;;;;;;;1999.90;999.90;;;15.80;99.90;;;;;;5121156;27;20027;-76
2022/10/15 18:37:24;;;;;;;1999.90;999.90;;;15.80;99.90;;;;;;5127054;27;20130;-75
2022/10/15 18:39:50;;;;;;;1999.90;999.90;;;15.90;99.90;;;;;;5128627;27;20032;-75
2022/10/15 18:42:15;;;;;;;1999.90;999.90;;;15.90;99.90;;;;;;5116001;27;20393;-76
2022/10/15 18:44:41;;;;;;;1999.90;999.90;;;15.90;99.90;;;;;;5116325;28;20381;-76
2022/10/15 18:47:07;;;;;;;1999.90;999.90;;;15.90;99.90;;;;;;5116871;28;20040;-77
2022/10/15 18:49:32;;;;;;;1999.90;999.90;;;16.30;99.90;;;;;;5113969;28;20138;-75
2022/10/15 18:51:58;;;;;;;1999.90;999.90;;;16.00;99.90;;;;;;5115979;27;20549;-76
2022/10/15 18:54:24;;;;;;;1999.90;999.90;;;15.90;99.90;;;;;;5115741;28;20063;-75
2022/10/15 18:56:51;;;;;;;1999.90;999.90;;;15.90;99.90;;;;;;5114692;28;20066;-75
2022/10/15 18:59:17;;;;;;;1999.90;999.90;;;15.80;99.90;;;;;;5116236;27;20122;-76
2022/10/15 19:01:42;;;;;;;1999.90;999.90;;;15.80;99.90;;;;;;5115657;27;20047;-75
2022/10/15 19:04:14;;;;;;;1999.90;999.90;;;15.80;99.90;;;;;;5115787;27;20055;-76
2022/10/15 19:06:45;;;;;;;1999.90;999.90;;;15.70;99.90;;;;;;5116737;27;20032;-81
2022/10/15 19:09:16;;;;;;;1999.90;999.90;;;15.70;99.90;;;;;;5118184;27;20028;-74
2022/10/15 19:11:44;;;;;;;1999.90;999.90;;;15.60;99.90;;;;;;5115305;27;20115;-74
2022/10/15 19:14:10;;;;;;;1999.90;999.90;;;15.60;99.90;;;;;;5119456;27;20039;-75
2022/10/15 19:16:36;;;;;;;1999.90;999.90;;;15.60;99.90;;;;;;5120270;27;20047;-75
2022/10/15 19:19:03;;;;;;;1999.90;999.90;;;15.60;99.90;;;;;;5121251;27;20063;-75
2022/10/15 19:21:29;;;;;;;1999.90;999.90;;;15.50;99.90;;;;;;5121465;27;20040;-75
2022/10/15 19:23:55;;;;;;;1999.90;999.90;;;15.50;99.90;;;;;;5127393;27;20495;-74
2022/10/15 19:26:21;;;;;;;1999.90;999.90;;;15.70;99.90;;;;;;5136605;27;20044;-75
2022/10/15 19:28:49;;;;;;;1999.90;999.90;;;15.50;99.90;;;;;;5136306;27;20508;-74
2022/10/15 19:31:24;;;;;;;1999.90;999.90;;;15.60;99.90;;;;;;5118915;27;20517;-75
2022/10/15 19:33:50;;;;;;;1999.90;999.90;;;15.60;99.90;;;;;;5114020;27;20032;-75
2022/10/15 19:36:21;;;;;;;1999.90;999.90;;;15.60;99.90;;;;;;5113969;28;20501;-75
2022/10/15 19:38:46;;;;;;;1999.90;999.90;;;15.90;99.90;;;;;;5116073;28;20036;-74
2022/10/15 19:41:12;;;;;;;1999.90;999.90;;;15.70;99.90;;;;;;5115754;28;20048;-74
2022/10/15 19:43:37;;;;;;;1999.90;999.90;;;15.70;99.90;;;;;;5114631;28;20028;-75
2022/10/15 19:46:03;;;;;;;1999.90;999.90;;;15.70;99.90;;;;;;5119295;27;20093;-74
2022/10/15 19:48:29;;;;;;;1999.90;999.90;;;15.70;99.90;;;;;;5118133;28;20922;-75
2022/10/15 19:50:54;;;;;;;1999.90;999.90;;;15.70;99.90;;;;;;5115781;27;20059;-76
2022/10/15 19:53:20;;;;;;;1999.90;999.90;;;15.70;99.90;;;;;;5115790;28;20028;-75
2022/10/15 19:55:55;;;;;;;1999.90;999.90;;;15.70;99.90;;;;;;5115562;28;20393;-74
2022/10/15 19:58:21;;;;;;;1999.90;999.90;;;15.80;99.90;;;;;;5115411;28;20037;-75
2022/10/15 20:00:48;;;;;;;1999.90;999.90;;;16.10;99.90;;;;;;5114852;27;20493;-79
2022/10/15 20:03:14;;;;;;;1999.90;999.90;;;15.90;99.90;;;;;;5113585;28;20033;-75
2022/10/15 20:05:43;;;;;;;1999.90;999.90;;;15.90;99.90;;;;;;5114952;28;20040;-75
2022/10/15 20:08:10;;;;;;;1999.90;999.90;;;15.80;99.90;;;;;;5115096;28;20798;-75
2022/10/15 20:10:39;;;;;;;1999.90;999.90;;;15.80;99.90;;;;;;5114959;27;20570;-75
2022/10/15 20:13:05;;;;;;;1999.90;999.90;;;15.70;99.90;;;;;;5115080;27;20032;-75
2022/10/15 20:15:30;;;;;;;1999.90;999.90;;;15.60;99.90;;;;;;5115104;27;20032;-75
2022/10/15 20:17:56;;;;;;;1999.90;999.90;;;15.60;99.90;;;;;;5114782;27;20699;-74
2022/10/15 20:20:21;;;;;;;1999.90;999.90;;;15.50;99.90;;;;;;5112984;28;20378;-74
2022/10/15 20:22:47;;;;;;;1999.90;999.90;;;15.40;99.90;;;;;;5112700;27;20485;-74
2022/10/15 20:25:12;;;;;;;1999.90;999.90;;;15.40;99.90;;;;;;5106836;27;20497;-74
2022/10/15 20:27:38;;;;;;;1999.90;999.90;;;15.40;99.90;;;;;;5114081;27;20097;-74
2022/10/15 20:30:04;;;;;;;1999.90;999.90;;;15.30;99.90;;;;;;5113183;28;20028;-74
2022/10/15 20:32:30;;;;;;;1999.90;999.90;;;15.30;99.90;;;;;;5114375;28;20071;-74
2022/10/15 20:34:55;;;;;;;1999.90;999.90;;;15.20;99.90;;;;;;5114292;27;20059;-74
2022/10/15 20:37:21;;;;;;;1999.90;999.90;;;15.20;99.90;;;;;;5112888;28;20028;-74
2022/10/15 20:39:47;;;;;;;1999.90;999.90;;;15.20;99.90;;;;;;5112518;28;20044;-74
2022/10/15 20:42:12;;;;;;;1999.90;999.90;;;15.30;99.90;;;;;;5112452;28;20610;-74
2022/10/15 20:44:38;;;;;;;1999.90;999.90;;;15.30;99.90;;;;;;5114138;28;20533;-74
2022/10/15 20:47:07;;;;;;;1999.90;999.90;;;15.30;99.90;;;;;;5113155;27;20032;-74
2022/10/15 20:49:39;;;;;;;1999.90;999.90;;;15.40;99.90;;;;;;5117916;27;20043;-74
2022/10/15 20:52:05;;;;;;;1999.90;999.90;;;15.40;99.90;;;;;;5117553;27;20042;-74
2022/10/15 20:54:31;;;;;;;1999.90;999.90;;;15.50;99.90;;;;;;5115576;27;20093;-74
2022/10/15 20:56:57;;;;;;;1999.90;999.90;;;15.40;99.90;;;;;;5117278;27;20079;-74
2022/10/15 20:59:22;;;;;;;1999.90;999.90;;;15.40;99.90;;;;;;5117624;28;20052;-74
2022/10/15 21:01:48;;;;;;;1999.90;999.90;;;15.50;99.90;;;;;;5116398;27;20395;-74
2022/10/15 21:04:14;;;;;;;1999.90;999.90;;;15.50;99.90;;;;;;5117918;28;20508;-74
2022/10/15 21:06:40;;;;;;;1999.90;999.90;;;15.60;99.90;;;;;;5116050;27;20044;-74
2022/10/15 21:09:05;;;;;;;1999.90;999.90;;;16.00;99.90;;;;;;5117981;27;20114;-74
2022/10/15 21:11:31;;;;;;;1999.90;999.90;;;15.60;99.90;;;;;;5117176;27;20142;-74
2022/10/15 21:13:59;;;;;;;1999.90;999.90;;;15.50;99.90;;;;;;5117312;28;20108;-74
2022/10/15 21:16:24;;;;;;;1999.90;999.90;;;15.50;99.90;;;;;;5116976;27;20032;-74
2022/10/15 21:18:50;;;;;;;1999.90;999.90;;;15.40;99.90;;;;;;5116738;28;20036;-74
2022/10/15 21:21:16;;;;;;;1999.90;999.90;;;15.30;99.90;;;;;;5117207;27;20051;-74
2022/10/15 21:23:42;;;;;;;1999.90;999.90;;;15.20;99.90;;;;;;5117029;27;20028;-74
2022/10/15 21:26:14;;;;;;;1999.90;999.90;;;15.30;99.90;;;;;;5115352;28;21061;-74
2022/10/15 21:28:40;;;;;;;1999.90;999.90;;;15.30;99.90;;;;;;5116732;27;20032;-74
2022/10/15 21:31:08;;;;;;;1999.90;999.90;;;15.40;99.90;;;;;;5117784;27;20044;-74
2022/10/15 21:33:35;;;;;;;1999.90;999.90;;;15.40;99.90;;;;;;5114622;27;20036;-74
2022/10/15 21:36:25;;;;;;;1999.90;999.90;;;15.30;99.90;;;;;;5116759;27;20035;-74
2022/10/15 21:38:58;;;;;;;1999.90;999.90;;;15.30;99.90;;;;;;5117134;27;20058;-74
2022/10/15 21:41:24;;;;;;;1999.90;999.90;;;15.30;99.90;;;;;;5117059;27;20040;-74
2022/10/15 21:43:51;;;;;;;1999.90;999.90;;;15.20;99.90;;;;;;5115424;28;20042;-74
2022/10/15 21:46:17;;;;;;;1999.90;999.90;;;15.30;99.90;;;;;;5116653;27;20085;-74
2022/10/15 21:48:43;;;;;;;1999.90;999.90;;;15.20;99.90;;;;;;5121009;22;20044;-71
2022/10/15 21:51:22;;;;;;;1999.90;999.90;;;15.20;99.90;;;;;;5075698;28;20037;-71
2022/10/15 21:53:48;;;;;;;1999.90;999.90;;;15.20;99.90;;;;;;5077151;28;20060;-71
2022/10/15 21:56:14;;;;;;;1999.90;999.90;;;15.30;99.90;;;;;;5076188;28;20040;-70
2022/10/15 21:58:40;;;;;;;1999.90;999.90;;;15.20;99.90;;;;;;5080628;28;20083;-71
2022/10/15 22:01:10;;;;;;;1999.90;999.90;;;15.20;99.90;;;;;;5096481;28;20490;-70
2022/10/15 22:03:36;;;;;;;1999.90;999.90;;;15.20;99.90;;;;;;5095251;28;20082;-70
2022/10/15 22:06:03;;;;;;;1999.90;999.90;;;15.30;99.90;;;;;;5096252;28;20102;-71
2022/10/15 22:08:29;;;;;;;1999.90;999.90;;;15.30;99.90;;;;;;5094528;28;20491;-70
2022/10/15 22:11:05;;;;;;;1999.90;999.90;;;15.30;99.90;;;;;;5116501;27;20035;-71
2022/10/15 22:13:30;;;;;;;1999.90;999.90;;;15.20;99.90;;;;;;5116175;28;20040;-70
2022/10/15 22:15:59;;;;;;;1999.90;999.90;;;15.30;99.90;;;;;;5116447;27;20036;-70
2022/10/15 22:18:24;;;;;;;1999.90;999.90;;;15.30;99.90;;;;;;5116340;27;20075;-70
2022/10/15 22:20:50;;;;;;;1999.90;999.90;;;15.30;99.90;;;;;;5116710;27;20127;-72
2022/10/15 22:23:15;;;;;;;1999.90;999.90;;;15.20;99.90;;;;;;5116336;27;20143;-77
2022/10/15 22:25:41;;;;;;;1999.90;999.90;;;15.30;99.90;;;;;;5116229;27;20075;-71
2022/10/15 22:28:06;;;;;;;1999.90;999.90;;;15.30;99.90;;;;;;5116272;28;20028;-72
2022/10/15 22:30:34;;;;;;;1999.90;999.90;;;15.30;99.90;;;;;;5116538;27;20043;-71
2022/10/15 22:33:00;;;;;;;1999.90;999.90;;;15.30;99.90;;;;;;5116558;27;20067;-72
2022/10/15 22:35:26;;;;;;;1999.90;999.90;;;15.40;99.90;;;;;;5116039;28;20032;-71
2022/10/15 22:37:54;;;;;;;1999.90;999.90;;;15.40;99.90;;;;;;5116338;27;20436;-71
2022/10/15 22:40:19;;;;;;;1999.90;999.90;;;15.40;99.90;;;;;;5115956;28;20028;-71
2022/10/15 22:42:46;;;;;;;1999.90;999.90;;;15.40;99.90;;;;;;5116262;27;20040;-72
2022/10/15 22:45:12;;;;;;;1999.90;999.90;;;15.50;99.90;;;;;;5115992;28;20024;-71
2022/10/15 22:47:37;;;;;;;1999.90;999.90;;;15.50;99.90;;;;;;5116397;27;20477;-72
2022/10/15 22:50:03;;;;;;;1999.90;999.90;;;15.60;99.90;;;;;;5115924;28;20040;-71
2022/10/15 22:52:29;;;;;;;1999.90;999.90;;;15.60;99.90;;;;;;5116255;28;20036;-71
2022/10/15 22:54:55;;;;;;;1999.90;999.90;;;15.60;99.90;;;;;;5115818;28;20036;-71
2022/10/15 22:57:20;;;;;;;1999.90;999.90;;;15.60;99.90;;;;;;5116173;28;20362;-71
2022/10/15 22:59:46;;;;;;;1999.90;999.90;;;15.60;99.90;;;;;;5116031;28;20024;-71
2022/10/15 23:02:11;;;;;;;1999.90;999.90;;;15.60;99.90;;;;;;5116099;28;20482;-71
2022/10/15 23:04:37;;;;;;;1999.90;999.90;;;15.60;99.90;;;;;;5114490;28;20115;-71
2022/10/15 23:07:02;;;;;;;1999.90;999.90;;;15.60;99.90;;;;;;5115851;28;20032;-71
2022/10/15 23:09:28;;;;;;;1999.90;999.90;;;15.60;99.90;;;;;;5115214;27;20078;-71
2022/10/15 23:11:54;;;;;;;1999.90;999.90;;;15.60;99.90;;;;;;5115103;27;20043;-71
2022/10/15 23:14:19;;;;;;;1999.90;999.90;;;15.50;99.90;;;;;;5115917;28;20032;-72
2022/10/15 23:16:46;;;;;;;1999.90;999.90;;;15.50;99.90;;;;;;5115684;27;20042;-71
2022/10/15 23:19:17;;;;;;;1999.90;999.90;;;15.60;99.90;;;;;;5115699;27;20150;-72
2022/10/15 23:21:46;;;;;;;1999.90;999.90;;;15.60;99.90;;;;;;5115746;28;20068;-72
2022/10/15 23:24:13;;;;;;;1999.90;999.90;;;15.70;99.90;;;;;;5115535;27;20028;-75
2022/10/15 23:26:39;;;;;;;1999.90;999.90;;;15.80;99.90;;;;;;5115232;27;20036;-72
2022/10/15 23:29:07;;;;;;;1999.90;999.90;;;15.70;99.90;;;;;;5115883;28;20122;-72
